createdAt,value
2019-03-21T00:02:08.250Z,19.60
2019-03-21T00:04:41.517Z,17.98
2019-03-21T00:07:11.876Z,19.10
2019-03-21T00:10:03.055Z,19.25
2019-03-21T00:12:33.411Z,18.32
2019-03-21T00:15:10.903Z,18.45
2019-03-21T00:17:46.270Z,17.82
2019-03-21T00:20:18.268Z,20.90
2019-03-21T00:22:48.669Z,22.05
2019-03-21T00:25:25.132Z,21.48
2019-03-21T00:27:55.535Z,22.17
2019-03-21T00:30:27.615Z,21.37
2019-03-21T00:32:59.113Z,22.15
2019-03-21T00:35:29.494Z,21.93
2019-03-21T00:37:59.855Z,20.97
2019-03-21T00:40:34.220Z,22.73
2019-03-21T00:43:09.724Z,22.07
2019-03-21T00:45:40.111Z,22.15
2019-03-21T00:48:14.284Z,21.93
2019-03-21T00:50:44.668Z,21.90
2019-03-21T00:53:15.039Z,22.82
2019-03-21T00:55:50.433Z,22.52
2019-03-21T00:58:40.342Z,21.50
2019-03-21T01:01:11.146Z,22.27
2019-03-21T01:03:41.507Z,22.05
2019-03-21T01:06:11.897Z,22.35
2019-03-21T01:08:42.252Z,23.07
2019-03-21T01:11:12.642Z,22.98
2019-03-21T01:13:43.005Z,21.77
2019-03-21T01:16:13.399Z,21.65
2019-03-21T01:18:46.874Z,23.90
2019-03-21T01:21:17.256Z,23.07
2019-03-21T01:23:47.625Z,23.60
2019-03-21T01:26:18.015Z,24.35
2019-03-21T01:28:48.387Z,23.62
2019-03-21T01:31:18.779Z,24.40
2019-03-21T01:33:49.148Z,24.50
2019-03-21T01:36:22.551Z,24.87
2019-03-21T01:38:52.920Z,26.62
2019-03-21T01:41:23.316Z,24.77
2019-03-21T01:43:53.682Z,24.98
2019-03-21T01:46:26.474Z,25.88
2019-03-21T01:48:57.103Z,26.62
2019-03-21T01:51:27.499Z,25.35
2019-03-21T01:53:57.860Z,25.70
2019-03-21T01:56:30.765Z,24.60
2019-03-21T01:59:01.170Z,25.77
2019-03-21T02:01:31.560Z,25.70
2019-03-21T02:04:01.921Z,25.95
2019-03-21T02:06:32.310Z,25.52
2019-03-21T02:09:03.386Z,25.88
2019-03-21T02:11:33.770Z,26.45
2019-03-21T02:14:04.139Z,25.97
2019-03-21T02:16:34.523Z,24.65
2019-03-21T02:19:04.880Z,26.17
2019-03-21T02:21:35.272Z,25.35
2019-03-21T02:24:06.272Z,26.75
2019-03-21T02:26:36.667Z,26.05
2019-03-21T02:29:07.037Z,26.17
2019-03-21T02:31:37.435Z,26.57
2019-03-21T02:34:07.866Z,26.02
2019-03-21T02:36:38.494Z,27.05
2019-03-21T02:39:09.012Z,26.55
2019-03-21T02:41:39.401Z,27.37
2019-03-21T02:44:09.775Z,26.87
2019-03-21T02:46:40.156Z,26.80
2019-03-21T02:49:10.535Z,25.02
2019-03-21T02:51:40.913Z,24.12
2019-03-21T02:54:11.275Z,25.32
2019-03-21T02:56:41.675Z,26.50
2019-03-21T02:59:12.042Z,24.15
2019-03-21T03:01:42.442Z,26.82
2019-03-21T03:04:12.796Z,23.83
2019-03-21T03:06:43.179Z,24.72
2019-03-21T03:09:13.547Z,24.57
2019-03-21T03:11:44.121Z,24.10
2019-03-21T03:14:14.498Z,23.45
2019-03-21T03:16:44.886Z,24.07
2019-03-21T03:19:15.251Z,23.45
2019-03-21T03:21:45.627Z,23.65
2019-03-21T03:24:16.260Z,23.80
2019-03-21T03:26:46.633Z,23.27
2019-03-21T03:29:17.015Z,23.83
2019-03-21T03:31:47.375Z,25.05
2019-03-21T03:34:17.764Z,23.32
2019-03-21T03:36:48.104Z,23.05
2019-03-21T03:39:18.484Z,24.12
2019-03-21T03:42:08.243Z,23.10
2019-03-21T03:44:38.621Z,23.80
2019-03-21T03:47:08.987Z,22.22
2019-03-21T03:49:39.380Z,23.30
2019-03-21T03:52:09.742Z,22.77
2019-03-21T03:54:40.120Z,23.10
2019-03-21T03:57:10.481Z,24.65
2019-03-21T03:59:40.863Z,23.70
2019-03-21T04:02:11.216Z,22.17
2019-03-21T04:04:41.673Z,23.12
2019-03-21T04:07:12.207Z,23.45
2019-03-21T04:09:42.585Z,23.47
2019-03-21T04:12:13.274Z,22.25
2019-03-21T04:14:43.662Z,23.00
2019-03-21T04:17:14.027Z,22.65
2019-03-21T04:19:44.412Z,23.38
2019-03-21T04:22:14.779Z,22.42
2019-03-21T04:24:45.262Z,23.18
2019-03-21T04:27:15.619Z,24.65
2019-03-21T04:29:45.995Z,24.27
2019-03-21T04:32:16.365Z,23.52
2019-03-21T04:34:46.743Z,23.32
2019-03-21T04:37:17.103Z,24.20
2019-03-21T04:39:47.491Z,22.95
2019-03-21T04:42:17.840Z,23.32
2019-03-21T04:44:48.227Z,24.18
2019-03-21T04:47:18.578Z,24.27
2019-03-21T04:49:48.964Z,24.35
2019-03-21T04:52:19.321Z,22.45
2019-03-21T04:54:49.714Z,22.48
2019-03-21T04:57:20.069Z,24.55
2019-03-21T04:59:50.450Z,24.50
2019-03-21T05:02:21.043Z,25.95
2019-03-21T05:04:51.426Z,24.27
2019-03-21T05:07:21.787Z,24.27
2019-03-21T05:09:53.141Z,23.25
2019-03-21T05:12:23.506Z,24.00
2019-03-21T05:14:53.894Z,25.40
2019-03-21T05:17:24.258Z,24.80
2019-03-21T05:19:54.642Z,25.00
2019-03-21T05:22:25.064Z,25.65
2019-03-21T05:24:55.449Z,26.45
2019-03-21T05:27:25.820Z,25.30
2019-03-21T05:29:56.221Z,26.07
2019-03-21T05:32:26.580Z,25.60
2019-03-21T05:34:56.982Z,27.13
2019-03-21T05:37:27.345Z,25.88
2019-03-21T05:39:57.721Z,26.73
2019-03-21T05:42:28.104Z,30.85
2019-03-21T05:44:58.571Z,27.98
2019-03-21T05:47:28.967Z,27.93
2019-03-21T05:49:59.336Z,27.35
2019-03-21T05:52:29.728Z,27.90
2019-03-21T05:55:00.125Z,25.48
2019-03-21T05:57:30.553Z,27.15
2019-03-21T06:00:00.926Z,26.50
2019-03-21T06:02:31.315Z,27.70
2019-03-21T06:05:01.678Z,28.07
2019-03-21T06:07:33.683Z,27.67
2019-03-21T06:10:10.315Z,27.32
2019-03-21T06:12:42.366Z,28.07
2019-03-21T06:15:17.411Z,27.00
2019-03-21T06:18:09.711Z,27.65
2019-03-21T06:21:01.866Z,27.55
2019-03-21T06:23:48.932Z,27.15
2019-03-21T06:26:41.888Z,27.85
2019-03-21T06:29:12.254Z,27.17
2019-03-21T06:31:42.649Z,27.25
2019-03-21T06:34:13.023Z,27.52
2019-03-21T06:36:43.419Z,27.35
2019-03-21T06:39:13.785Z,25.97
2019-03-21T06:41:44.172Z,26.70
2019-03-21T06:44:15.612Z,26.62
2019-03-21T06:46:49.760Z,26.25
2019-03-21T06:49:18.085Z,24.23
2019-03-21T06:51:48.478Z,26.27
2019-03-21T06:54:18.845Z,26.12
2019-03-21T06:56:49.241Z,25.97
2019-03-21T06:59:19.625Z,25.45
2019-03-21T07:01:50.017Z,25.97
2019-03-21T07:04:20.377Z,26.37
2019-03-21T07:06:50.767Z,26.40
2019-03-21T07:09:21.128Z,27.42
2019-03-21T07:11:51.522Z,26.77
2019-03-21T07:14:21.888Z,27.10
2019-03-21T07:17:00.394Z,28.83
2019-03-21T07:19:24.421Z,27.67
2019-03-21T07:21:55.152Z,28.15
2019-03-21T07:24:25.582Z,30.02
2019-03-21T07:26:55.920Z,30.62
2019-03-21T07:29:26.297Z,29.85
2019-03-21T07:31:56.684Z,31.23
2019-03-21T07:34:27.086Z,30.62
2019-03-21T07:36:57.627Z,29.35
2019-03-21T07:39:28.780Z,35.65
2019-03-21T07:42:01.200Z,31.02
2019-03-21T07:44:31.429Z,30.50
2019-03-21T07:47:12.347Z,30.65
2019-03-21T07:49:33.929Z,30.70
2019-03-21T07:52:04.292Z,31.00
2019-03-21T07:54:34.681Z,30.12
2019-03-21T07:57:05.049Z,30.90
2019-03-21T07:59:35.454Z,29.92
2019-03-21T08:02:05.815Z,31.23
2019-03-21T08:04:36.210Z,29.92
2019-03-21T08:07:06.576Z,28.85
2019-03-21T08:09:39.870Z,27.77
2019-03-21T08:12:10.523Z,29.30
2019-03-21T08:14:41.373Z,28.62
2019-03-21T08:17:11.868Z,29.70
2019-03-21T08:19:42.310Z,29.98
2019-03-21T08:22:12.674Z,28.75
2019-03-21T08:24:43.908Z,29.67
2019-03-21T08:27:14.286Z,30.20
2019-03-21T08:29:56.763Z,30.10
2019-03-21T08:32:27.129Z,28.52
2019-03-21T08:34:57.513Z,29.90
2019-03-21T08:37:27.881Z,30.08
2019-03-21T08:39:58.283Z,30.32
2019-03-21T08:42:28.646Z,30.10
2019-03-21T08:44:59.037Z,28.15
2019-03-21T08:47:29.410Z,30.25
2019-03-21T08:49:59.811Z,29.55
2019-03-21T08:52:30.228Z,29.70
2019-03-21T08:55:00.612Z,29.92
2019-03-21T08:57:32.060Z,28.42
2019-03-21T09:00:02.526Z,27.80
2019-03-21T09:02:32.897Z,27.93
2019-03-21T09:05:03.659Z,28.25
2019-03-21T09:07:34.023Z,27.25
2019-03-21T09:10:08.579Z,26.20
2019-03-21T09:12:38.968Z,27.05
2019-03-21T09:15:10.502Z,24.75
2019-03-21T09:17:40.949Z,25.48
2019-03-21T09:20:12.351Z,23.57
2019-03-21T09:22:43.052Z,23.05
2019-03-21T09:25:13.511Z,22.67
2019-03-21T09:27:43.878Z,22.85
2019-03-21T09:30:16.073Z,21.97
2019-03-21T09:32:46.436Z,21.10
2019-03-21T09:35:16.832Z,21.97
2019-03-21T09:37:47.197Z,21.55
2019-03-21T09:40:17.648Z,22.00
2019-03-21T09:42:48.021Z,21.85
2019-03-21T09:45:18.487Z,22.37
2019-03-21T09:47:48.857Z,19.92
2019-03-21T09:50:29.610Z,21.75
2019-03-21T09:53:00.051Z,21.73
2019-03-21T09:55:30.435Z,22.58
2019-03-21T09:58:00.808Z,21.42
2019-03-21T10:00:36.408Z,22.40
2019-03-21T10:03:08.123Z,20.85
2019-03-21T10:05:38.522Z,21.50
2019-03-21T10:08:08.901Z,21.40
2019-03-21T10:10:39.300Z,21.20
2019-03-21T10:13:09.665Z,20.90
2019-03-21T10:15:40.722Z,20.85
2019-03-21T10:18:11.088Z,20.55
2019-03-21T10:20:41.487Z,21.02
2019-03-21T10:23:12.906Z,20.97
2019-03-21T10:25:43.284Z,20.45
2019-03-21T10:28:16.682Z,18.98
2019-03-21T10:30:47.184Z,17.52
2019-03-21T10:33:17.682Z,18.35
2019-03-21T10:35:48.058Z,17.25
2019-03-21T10:38:22.300Z,17.23
2019-03-21T10:40:52.685Z,16.40
2019-03-21T10:43:23.057Z,15.80
2019-03-21T10:45:53.447Z,15.53
2019-03-21T10:48:23.871Z,16.93
2019-03-21T10:50:54.261Z,14.43
2019-03-21T10:53:24.646Z,14.35
2019-03-21T10:55:55.054Z,15.55
2019-03-21T10:58:25.428Z,14.45
2019-03-21T11:00:55.837Z,15.13
2019-03-21T11:03:26.199Z,15.45
2019-03-21T11:05:56.593Z,15.23
2019-03-21T11:08:31.352Z,16.52
2019-03-21T11:11:02.694Z,15.55
2019-03-21T11:13:33.380Z,16.48
2019-03-21T11:16:03.740Z,16.93
2019-03-21T11:18:36.310Z,16.75
2019-03-21T11:21:06.381Z,16.90
2019-03-21T11:23:36.776Z,17.75
2019-03-21T11:26:07.197Z,18.23
2019-03-21T11:28:40.604Z,18.92
2019-03-21T11:31:11.009Z,18.35
2019-03-21T11:33:41.440Z,18.37
2019-03-21T11:36:11.760Z,18.52
2019-03-21T11:38:42.157Z,18.62
2019-03-21T11:41:12.544Z,19.30
2019-03-21T11:43:42.930Z,18.55
2019-03-21T11:46:13.384Z,19.35
2019-03-21T11:48:43.760Z,19.62
2019-03-21T11:51:14.135Z,19.23
2019-03-21T11:53:44.517Z,17.77
2019-03-21T11:56:16.013Z,18.98
2019-03-21T11:58:46.353Z,18.42
2019-03-21T12:01:16.732Z,18.62
2019-03-21T12:03:47.120Z,18.50
2019-03-21T12:06:17.490Z,19.48
2019-03-21T12:08:47.876Z,18.42
2019-03-21T12:11:18.249Z,19.15
2019-03-21T12:13:48.651Z,19.98
2019-03-21T12:16:19.023Z,20.72
2019-03-21T12:18:49.436Z,19.77
2019-03-21T12:21:19.801Z,22.42
2019-03-21T12:23:50.207Z,21.57
2019-03-21T12:26:20.577Z,21.23
2019-03-21T12:28:50.974Z,21.20
2019-03-21T12:31:21.350Z,21.52
2019-03-21T12:33:51.747Z,21.95
2019-03-21T12:36:22.113Z,22.17
2019-03-21T12:38:52.531Z,23.05
2019-03-21T12:41:22.893Z,23.38
2019-03-21T12:43:53.288Z,21.70
2019-03-21T12:46:23.664Z,23.20
2019-03-21T12:48:54.072Z,24.00
2019-03-21T12:51:24.437Z,22.75
2019-03-21T12:53:54.826Z,23.83
2019-03-21T12:56:25.196Z,24.20
2019-03-21T12:58:55.584Z,23.80
2019-03-21T13:01:26.049Z,23.20
2019-03-21T13:03:56.450Z,24.32
2019-03-21T13:06:26.905Z,24.87
2019-03-21T13:08:57.293Z,24.10
2019-03-21T13:11:27.752Z,25.85
2019-03-21T13:13:58.191Z,24.70
2019-03-21T13:16:28.557Z,23.83
2019-03-21T13:18:58.950Z,24.52
2019-03-21T13:21:29.322Z,24.77
2019-03-21T13:23:59.714Z,24.30
2019-03-21T13:26:30.088Z,23.62
2019-03-21T13:29:00.482Z,24.50
2019-03-21T13:31:30.854Z,23.12
2019-03-21T13:34:01.246Z,24.15
2019-03-21T13:36:44.048Z,25.70
2019-03-21T13:39:26.813Z,25.48
2019-03-21T13:41:57.194Z,25.68
2019-03-21T13:44:27.586Z,25.25
2019-03-21T13:46:57.960Z,25.15
2019-03-21T13:49:29.429Z,25.90
2019-03-21T13:51:59.794Z,25.77
2019-03-21T13:54:30.190Z,25.17
2019-03-21T13:57:00.556Z,26.57
2019-03-21T13:59:31.060Z,25.80
2019-03-21T14:02:01.428Z,26.37
2019-03-21T14:04:31.820Z,26.68
2019-03-21T14:07:02.206Z,26.93
2019-03-21T14:09:32.604Z,26.45
2019-03-21T14:12:03.050Z,26.50
2019-03-21T14:14:33.411Z,26.73
2019-03-21T14:17:03.946Z,27.13
2019-03-21T14:19:34.343Z,26.57
2019-03-21T14:22:04.715Z,27.42
2019-03-21T14:24:35.101Z,26.85
2019-03-21T14:27:05.482Z,26.95
2019-03-21T14:29:35.869Z,28.47
2019-03-21T14:32:07.207Z,27.95
2019-03-21T14:34:37.598Z,27.62
2019-03-21T14:37:07.966Z,26.35
2019-03-21T14:39:38.367Z,27.55
2019-03-21T14:42:21.642Z,28.73
2019-03-21T14:44:52.041Z,27.65
2019-03-21T14:47:23.379Z,27.00
2019-03-21T14:49:53.776Z,27.82
2019-03-21T14:52:24.143Z,26.37
2019-03-21T14:54:54.533Z,27.77
2019-03-21T14:57:24.905Z,27.07
2019-03-21T14:59:55.295Z,26.60
2019-03-21T15:02:25.660Z,26.85
2019-03-21T15:04:56.050Z,27.30
2019-03-21T15:07:26.430Z,27.73
2019-03-21T15:09:56.827Z,26.68
2019-03-21T15:12:29.651Z,28.42
2019-03-21T15:14:59.282Z,26.77
2019-03-21T15:17:29.658Z,26.30
2019-03-21T15:20:00.176Z,25.12
2019-03-21T15:22:30.734Z,24.15
2019-03-21T15:25:01.121Z,27.02
2019-03-21T15:27:31.493Z,25.05
2019-03-21T15:30:01.970Z,24.98
2019-03-21T15:32:32.529Z,26.20
2019-03-21T15:35:02.998Z,25.68
2019-03-21T15:37:33.369Z,25.90
2019-03-21T15:40:05.577Z,24.63
2019-03-21T15:42:36.032Z,23.05
2019-03-21T15:45:22.382Z,24.25
2019-03-21T15:47:47.226Z,23.42
2019-03-21T15:50:38.400Z,24.52
2019-03-21T15:53:09.066Z,22.73
2019-03-21T15:55:39.468Z,22.90
2019-03-21T15:58:11.036Z,23.67
2019-03-21T16:00:43.439Z,24.75
2019-03-21T16:03:14.468Z,22.45
2019-03-21T16:05:44.860Z,22.82
2019-03-21T16:08:15.306Z,24.90
2019-03-21T16:10:45.695Z,22.32
2019-03-21T16:13:16.179Z,22.93
2019-03-21T16:15:46.588Z,24.25
2019-03-21T16:18:19.902Z,24.55
2019-03-21T16:20:50.285Z,25.85
2019-03-21T16:23:21.939Z,24.02
2019-03-21T16:25:52.332Z,23.70
2019-03-21T16:28:24.044Z,24.10
2019-03-21T16:30:54.426Z,23.05
2019-03-21T16:33:24.976Z,23.60
2019-03-21T16:35:55.360Z,23.90
2019-03-21T16:38:26.028Z,23.07
2019-03-21T16:40:56.392Z,24.18
2019-03-21T16:43:28.073Z,23.07
2019-03-21T16:45:58.426Z,24.82
2019-03-21T16:48:28.932Z,24.63
2019-03-21T16:50:59.294Z,23.85
2019-03-21T16:53:29.686Z,22.42
2019-03-21T16:56:00.075Z,23.75
2019-03-21T16:58:31.248Z,24.67
2019-03-21T17:01:01.640Z,23.60
2019-03-21T17:03:33.205Z,23.20
2019-03-21T17:06:03.566Z,24.92
2019-03-21T17:08:33.962Z,23.92
2019-03-21T17:11:04.416Z,22.62
2019-03-21T17:13:34.766Z,24.57
2019-03-21T17:16:05.870Z,26.15
2019-03-21T17:18:36.411Z,24.90
2019-03-21T17:21:09.373Z,23.32
2019-03-21T17:23:38.868Z,21.85
2019-03-21T17:26:09.281Z,24.45
2019-03-21T17:28:39.670Z,23.73
2019-03-21T17:31:10.120Z,25.35
2019-03-21T17:33:40.494Z,24.25
2019-03-21T17:36:10.851Z,23.57
2019-03-21T17:38:41.231Z,23.32
2019-03-21T17:41:11.595Z,24.57
2019-03-21T17:43:41.973Z,25.40
2019-03-21T17:46:12.334Z,24.63
2019-03-21T17:48:42.720Z,24.45
2019-03-21T17:51:13.080Z,25.55
2019-03-21T17:53:43.462Z,25.27
2019-03-21T17:56:13.824Z,27.07
2019-03-21T17:58:44.280Z,25.15
2019-03-21T18:01:14.878Z,25.97
2019-03-21T18:03:45.429Z,26.33
2019-03-21T18:06:15.793Z,25.68
2019-03-21T18:08:46.172Z,26.42
2019-03-21T18:11:16.532Z,25.43
2019-03-21T18:13:46.919Z,25.43
2019-03-21T18:16:18.717Z,26.77
2019-03-21T18:18:49.317Z,25.35
2019-03-21T18:21:20.643Z,26.97
2019-03-21T18:23:51.093Z,25.95
2019-03-21T18:26:34.052Z,26.87
2019-03-21T18:29:04.430Z,26.75
2019-03-21T18:31:34.786Z,25.40
2019-03-21T18:34:05.347Z,27.58
2019-03-21T18:36:35.708Z,25.88
2019-03-21T18:39:08.031Z,27.80
2019-03-21T18:41:38.518Z,27.07
2019-03-21T18:44:08.901Z,27.60
2019-03-21T18:46:39.257Z,29.72
2019-03-21T18:49:09.740Z,27.60
2019-03-21T18:51:40.117Z,27.40
2019-03-21T18:54:10.500Z,29.02
2019-03-21T18:56:40.861Z,29.30
2019-03-21T18:59:11.248Z,27.95
2019-03-21T19:01:41.603Z,28.52
2019-03-21T19:04:11.989Z,28.05
2019-03-21T19:06:42.395Z,27.45
2019-03-21T19:09:12.774Z,27.80
2019-03-21T19:11:43.132Z,28.50
2019-03-21T19:14:13.521Z,28.30
2019-03-21T19:16:44.228Z,29.57
2019-03-21T19:19:14.638Z,28.42
2019-03-21T19:21:45.013Z,28.65
2019-03-21T19:24:15.376Z,29.25
2019-03-21T19:26:45.758Z,30.85
2019-03-21T19:29:16.118Z,29.37
2019-03-21T19:31:46.500Z,28.55
2019-03-21T19:34:16.862Z,29.42
2019-03-21T19:36:47.257Z,29.95
2019-03-21T19:39:17.626Z,29.95
2019-03-21T19:41:48.008Z,30.30
2019-03-21T19:44:18.364Z,29.63
2019-03-21T19:46:48.754Z,31.65
2019-03-21T19:49:19.116Z,31.55
2019-03-21T19:51:49.499Z,30.80
2019-03-21T19:54:19.867Z,30.82
2019-03-21T19:56:50.262Z,29.72
2019-03-21T19:59:20.636Z,29.35
2019-03-21T20:01:51.018Z,28.45
2019-03-21T20:04:21.471Z,29.57
2019-03-21T20:06:51.857Z,29.50
2019-03-21T20:09:22.234Z,29.80
2019-03-21T20:11:52.623Z,29.48
2019-03-21T20:14:23.004Z,32.73
2019-03-21T20:16:53.395Z,31.10
2019-03-21T20:19:23.744Z,31.12
2019-03-21T20:21:54.136Z,29.77
2019-03-21T20:24:24.864Z,28.77
2019-03-21T20:26:55.247Z,28.98
2019-03-21T20:29:25.600Z,29.87
2019-03-21T20:31:55.976Z,28.52
2019-03-21T20:34:27.311Z,30.32
2019-03-21T20:36:57.766Z,28.17
2019-03-21T20:39:28.124Z,29.35
2019-03-21T20:41:58.500Z,27.45
2019-03-21T20:44:28.862Z,27.82
2019-03-21T20:46:59.256Z,28.00
2019-03-21T20:49:29.626Z,28.47
2019-03-21T20:52:00.003Z,28.52
2019-03-21T20:54:30.369Z,28.45
2019-03-21T20:57:00.747Z,27.90
2019-03-21T20:59:31.111Z,27.00
2019-03-21T21:02:03.052Z,28.83
2019-03-21T21:04:34.707Z,27.98
2019-03-21T21:07:05.094Z,29.10
2019-03-21T21:09:35.481Z,29.42
2019-03-21T21:12:05.935Z,29.77
2019-03-21T21:14:36.287Z,30.35
2019-03-21T21:17:06.678Z,31.97
2019-03-21T21:19:37.051Z,32.05
2019-03-21T21:22:07.431Z,31.12
2019-03-21T21:24:37.797Z,30.50
2019-03-21T21:27:08.170Z,29.80
2019-03-21T21:29:38.530Z,30.25
2019-03-21T21:32:08.945Z,31.02
2019-03-21T21:34:39.953Z,30.20
2019-03-21T21:37:10.477Z,29.85
2019-03-21T21:39:40.836Z,32.25
2019-03-21T21:42:24.239Z,29.85
2019-03-21T21:44:54.627Z,31.07
2019-03-21T21:47:25.014Z,31.52
2019-03-21T21:49:55.457Z,32.00
2019-03-21T21:52:25.843Z,33.95
2019-03-21T21:54:59.113Z,34.38
2019-03-21T21:57:32.432Z,33.42
2019-03-21T22:00:03.101Z,31.65
2019-03-21T22:02:33.754Z,33.88
2019-03-21T22:05:07.564Z,32.15
2019-03-21T22:07:38.130Z,31.77
2019-03-21T22:10:10.402Z,31.35
2019-03-21T22:12:40.940Z,30.72
2019-03-21T22:15:16.828Z,32.20
2019-03-21T22:17:47.215Z,41.65
2019-03-21T22:20:18.084Z,46.33
2019-03-21T22:22:48.514Z,39.67
2019-03-21T22:25:18.871Z,35.70
2019-03-21T22:27:49.247Z,32.78
2019-03-21T22:30:20.241Z,30.92
2019-03-21T22:32:50.623Z,32.80
2019-03-21T22:35:20.979Z,32.08
2019-03-21T22:37:51.359Z,33.92
2019-03-21T22:40:21.719Z,35.17
2019-03-21T22:42:52.114Z,33.73
2019-03-21T22:45:22.468Z,34.48
2019-03-21T22:47:52.851Z,33.20
2019-03-21T22:50:23.210Z,34.18
2019-03-21T22:52:53.605Z,33.33
2019-03-21T22:55:23.969Z,34.23
2019-03-21T22:57:54.351Z,35.60
2019-03-21T23:00:29.916Z,35.05
2019-03-21T23:03:02.369Z,33.73
2019-03-21T23:05:36.058Z,33.98
2019-03-21T23:08:06.436Z,35.63
2019-03-21T23:10:36.794Z,35.38
2019-03-21T23:13:07.147Z,35.88
2019-03-21T23:15:37.708Z,37.63
2019-03-21T23:18:08.237Z,36.15
2019-03-21T23:20:38.621Z,36.23
2019-03-21T23:23:08.979Z,35.05
2019-03-21T23:25:39.367Z,35.10
2019-03-21T23:28:09.737Z,36.77
2019-03-21T23:30:40.120Z,35.38
2019-03-21T23:33:10.477Z,38.10
2019-03-21T23:35:40.867Z,37.65
2019-03-21T23:38:11.230Z,40.85
2019-03-21T23:40:41.612Z,42.75
2019-03-21T23:43:11.966Z,39.75
2019-03-21T23:45:42.353Z,40.55
2019-03-21T23:48:12.742Z,40.98
2019-03-21T23:50:43.131Z,39.75
2019-03-21T23:53:13.512Z,39.53
2019-03-21T23:55:43.897Z,41.45
2019-03-21T23:58:14.265Z,42.30
